Time;durP1;ratioP1;P1;durP2;ratioP2;P2;SDS_P1;SDS_P2;PMS_P1;PMS_P2;Temp;Humidity;BMP_temperature;BMP_pressure;BME280_temperature;BME280_humidity;BME280_pressure;Samples;Min_cycle;Max_cycle;Signal;HPM_P1;HPM_P2
2021/12/03 00:00:20;;;;;;;13.73;9.07;;;2.10;99.90;;;;;;5019938;28;20609;-68
2021/12/03 00:02:48;;;;;;;26.80;9.57;;;2.10;99.90;;;;;;5029783;28;20456;-70
2021/12/03 00:05:16;;;;;;;17.17;10.30;;;2.20;99.90;;;;;;5028177;28;20485;-70
2021/12/03 00:07:44;;;;;;;25.70;14.50;;;2.20;99.90;;;;;;5030907;28;20453;-69
2021/12/03 00:10:13;;;;;;;22.70;11.70;;;2.10;99.90;;;;;;5036085;28;20453;-70
2021/12/03 00:12:40;;;;;;;35.87;14.90;;;2.00;99.90;;;;;;5046488;28;20912;-69
2021/12/03 00:15:09;;;;;;;22.80;13.10;;;2.20;99.90;;;;;;5032749;28;20463;-68
2021/12/03 00:17:37;;;;;;;29.97;9.20;;;2.20;99.90;;;;;;5031794;28;20446;-69
2021/12/03 00:20:07;;;;;;;22.20;12.40;;;2.20;99.90;;;;;;5040813;28;20450;-68
2021/12/03 00:22:36;;;;;;;21.10;12.00;;;2.20;99.90;;;;;;5037798;28;20858;-69
2021/12/03 00:25:04;;;;;;;29.27;11.90;;;2.30;99.90;;;;;;5023293;28;20439;-68
2021/12/03 00:27:31;;;;;;;19.90;12.37;;;2.30;99.90;;;;;;5034926;28;21917;-69
2021/12/03 00:29:58;;;;;;;16.10;6.50;;;2.40;99.90;;;;;;5038498;28;21898;-69
2021/12/03 00:32:25;;;;;;;7.00;5.87;;;2.30;99.90;;;;;;5035078;28;20649;-69
2021/12/03 00:34:52;;;;;;;21.40;13.10;;;2.30;99.90;;;;;;5031200;28;20458;-69
2021/12/03 00:37:19;;;;;;;21.10;7.80;;;2.40;99.90;;;;;;5030045;28;20525;-68
2021/12/03 00:39:47;;;;;;;30.33;16.70;;;2.40;99.90;;;;;;5036421;28;20418;-69
2021/12/03 00:42:17;;;;;;;40.97;12.57;;;2.40;99.90;;;;;;5042597;28;21076;-68
2021/12/03 00:44:48;;;;;;;18.17;12.77;;;2.30;99.90;;;;;;5032113;28;20882;-68
2021/12/03 00:47:16;;;;;;;26.97;13.47;;;2.20;99.90;;;;;;5039362;28;20474;-69
2021/12/03 00:49:43;;;;;;;24.60;13.90;;;2.30;99.90;;;;;;5035557;28;20431;-70
2021/12/03 00:52:10;;;;;;;24.20;14.07;;;2.10;99.90;;;;;;5030173;28;20465;-69
2021/12/03 00:54:37;;;;;;;26.33;13.53;;;2.10;99.90;;;;;;5020282;28;20590;-70
2021/12/03 00:57:06;;;;;;;21.87;12.13;;;2.20;99.90;;;;;;5035134;28;20421;-70
2021/12/03 00:59:34;;;;;;;24.07;12.60;;;2.20;99.90;;;;;;5028214;28;20481;-69
2021/12/03 01:02:01;;;;;;;19.03;9.57;;;2.20;99.90;;;;;;5037737;28;20557;-69
2021/12/03 01:04:28;;;;;;;23.43;13.10;;;2.20;99.90;;;;;;5018856;28;20549;-69
2021/12/03 01:06:55;;;;;;;22.77;12.63;;;2.10;99.90;;;;;;5010315;28;21051;-69
2021/12/03 01:09:22;;;;;;;17.23;11.10;;;2.10;99.90;;;;;;5013104;28;20454;-69
2021/12/03 01:11:50;;;;;;;19.30;12.70;;;2.20;99.90;;;;;;5031299;28;20434;-70
2021/12/03 01:14:19;;;;;;;16.03;10.13;;;2.10;99.90;;;;;;5037512;28;20480;-69
2021/12/03 01:16:47;;;;;;;33.30;12.37;;;2.00;99.90;;;;;;5037093;28;20476;-69
2021/12/03 01:19:14;;;;;;;16.63;9.77;;;2.10;99.90;;;;;;5039097;28;20472;-69
2021/12/03 01:21:41;;;;;;;16.23;8.90;;;2.00;99.90;;;;;;5028830;28;20469;-68
2021/12/03 01:24:09;;;;;;;20.00;10.20;;;2.10;99.90;;;;;;5026374;28;20491;-68
2021/12/03 01:26:38;;;;;;;24.57;12.80;;;2.00;99.90;;;;;;5029284;28;20576;-69
2021/12/03 01:29:05;;;;;;;13.83;8.70;;;2.10;99.90;;;;;;5036457;28;20243;-70
2021/12/03 01:31:33;;;;;;;22.77;9.73;;;2.00;99.90;;;;;;5033872;28;20461;-69
2021/12/03 01:34:00;;;;;;;23.53;12.40;;;2.00;99.90;;;;;;5033387;28;20422;-69
2021/12/03 01:36:27;;;;;;;25.83;12.27;;;1.90;99.90;;;;;;5021742;28;20964;-69
2021/12/03 01:38:55;;;;;;;9.40;6.77;;;2.00;99.90;;;;;;5017500;28;20581;-69
2021/12/03 01:41:22;;;;;;;19.87;13.37;;;2.00;99.90;;;;;;5036524;28;20456;-69
2021/12/03 01:43:51;;;;;;;10.83;8.90;;;2.10;99.90;;;;;;5042311;28;20517;-67
2021/12/03 01:46:20;;;;;;;2.83;2.40;;;2.10;99.90;;;;;;5033058;28;20556;-70
2021/12/03 01:48:48;;;;;;;17.87;9.47;;;2.10;99.90;;;;;;5033328;28;20490;-70
2021/12/03 01:51:15;;;;;;;23.53;13.20;;;2.00;99.90;;;;;;5045430;28;20463;-70
2021/12/03 01:53:42;;;;;;;9.67;7.43;;;2.00;99.90;;;;;;5038002;28;20545;-69
2021/12/03 01:56:12;;;;;;;14.10;9.40;;;2.00;99.90;;;;;;5028043;28;20460;-70
2021/12/03 01:58:41;;;;;;;19.10;9.07;;;2.10;99.90;;;;;;5036007;28;20947;-69
2021/12/03 02:01:10;;;;;;;10.33;8.13;;;2.10;99.90;;;;;;5039018;28;20470;-70
2021/12/03 02:03:40;;;;;;;12.77;8.80;;;2.20;99.90;;;;;;5037139;28;20980;-70
2021/12/03 02:06:10;;;;;;;21.07;11.20;;;2.20;99.90;;;;;;5044300;28;20903;-70
2021/12/03 02:08:38;;;;;;;9.10;6.47;;;2.20;99.90;;;;;;5032036;28;20547;-70
2021/12/03 02:11:07;;;;;;;12.60;9.30;;;2.20;99.90;;;;;;5033941;28;20459;-70
2021/12/03 02:13:35;;;;;;;7.30;6.63;;;2.20;99.90;;;;;;5040010;28;20419;-69
2021/12/03 02:16:05;;;;;;;17.80;10.57;;;2.20;99.90;;;;;;5027908;28;20542;-70
2021/12/03 02:18:32;;;;;;;11.50;8.50;;;2.10;99.90;;;;;;5027662;28;20449;-69
2021/12/03 02:21:03;;;;;;;15.20;8.90;;;2.20;99.90;;;;;;5042998;28;20630;-70
2021/12/03 02:23:30;;;;;;;10.63;8.83;;;2.20;99.90;;;;;;5051305;28;20480;-70
2021/12/03 02:25:58;;;;;;;23.10;11.93;;;2.20;99.90;;;;;;5042358;28;20434;-70
2021/12/03 02:28:28;;;;;;;10.90;8.90;;;2.30;99.90;;;;;;5037638;28;20488;-71
2021/12/03 02:30:56;;;;;;;17.73;10.57;;;2.30;99.90;;;;;;5042750;28;20441;-70
2021/12/03 02:33:23;;;;;;;42.77;12.60;;;2.30;99.90;;;;;;5030326;28;20511;-69
2021/12/03 02:35:52;;;;;;;9.57;8.50;;;2.30;99.90;;;;;;5037630;28;20430;-69
2021/12/03 02:38:22;;;;;;;15.23;10.93;;;2.40;99.90;;;;;;5036458;28;20735;-70
2021/12/03 02:40:51;;;;;;;23.13;12.10;;;2.40;99.90;;;;;;5040933;28;20550;-70
2021/12/03 02:43:18;;;;;;;13.80;6.70;;;2.40;99.90;;;;;;5035270;28;20489;-71
2021/12/03 02:45:46;;;;;;;18.93;11.63;;;2.40;99.90;;;;;;5033404;28;21147;-70
2021/12/03 02:48:14;;;;;;;21.50;9.27;;;2.50;99.90;;;;;;5026085;28;20553;-70
2021/12/03 02:50:41;;;;;;;31.00;11.73;;;2.50;99.90;;;;;;5042765;28;20418;-70
2021/12/03 02:53:08;;;;;;;19.23;10.50;;;2.70;99.90;;;;;;5042602;28;20499;-70
2021/12/03 02:55:40;;;;;;;17.90;8.50;;;2.60;99.90;;;;;;5009510;28;20546;-69
2021/12/03 02:58:07;;;;;;;26.27;10.20;;;2.70;99.90;;;;;;5035656;28;20481;-72
2021/12/03 03:00:34;;;;;;;23.70;11.10;;;2.70;99.90;;;;;;5022138;28;20434;-70
2021/12/03 03:03:01;;;;;;;18.60;10.30;;;2.70;99.90;;;;;;5036890;28;21009;-70
2021/12/03 03:05:29;;;;;;;26.87;10.40;;;2.80;99.90;;;;;;5039319;28;20430;-71
2021/12/03 03:07:56;;;;;;;23.77;13.27;;;2.70;99.90;;;;;;5034770;28;20514;-71
2021/12/03 03:10:28;;;;;;;12.13;7.43;;;2.70;99.90;;;;;;5025580;28;20936;-69
2021/12/03 03:12:58;;;;;;;26.37;14.27;;;2.80;99.90;;;;;;5046310;28;20534;-68
2021/12/03 03:15:25;;;;;;;4.00;3.60;;;2.80;99.90;;;;;;5040000;28;20483;-68
2021/12/03 03:17:53;;;;;;;21.30;13.40;;;2.80;99.90;;;;;;5042286;28;20469;-67
2021/12/03 03:20:20;;;;;;;18.43;8.00;;;2.80;99.90;;;;;;5039144;28;20427;-69
2021/12/03 03:22:49;;;;;;;16.67;12.27;;;2.80;99.90;;;;;;5045756;28;20562;-69
2021/12/03 03:25:19;;;;;;;12.17;7.30;;;2.80;99.90;;;;;;5031749;28;20446;-69
2021/12/03 03:27:47;;;;;;;16.33;10.73;;;2.90;99.90;;;;;;5045008;28;20457;-70
2021/12/03 03:30:18;;;;;;;13.17;8.40;;;2.90;99.90;;;;;;5039727;28;20792;-69
2021/12/03 03:32:46;;;;;;;24.67;10.30;;;2.80;99.90;;;;;;5033925;28;20434;-69
2021/12/03 03:35:13;;;;;;;17.70;8.57;;;2.80;99.90;;;;;;5009147;28;21564;-68
2021/12/03 03:37:41;;;;;;;9.03;5.93;;;2.80;99.90;;;;;;5049605;28;20457;-69
2021/12/03 03:40:10;;;;;;;14.43;8.97;;;2.80;99.90;;;;;;5032924;28;20927;-66
2021/12/03 03:42:37;;;;;;;12.90;8.13;;;2.80;99.90;;;;;;5044827;28;20464;-69
2021/12/03 03:45:09;;;;;;;14.77;9.33;;;2.70;99.90;;;;;;5028162;28;20558;-70
2021/12/03 03:47:37;;;;;;;14.37;9.47;;;2.70;99.90;;;;;;5038227;28;20463;-70
2021/12/03 03:50:06;;;;;;;14.17;12.77;;;2.60;99.90;;;;;;5038703;28;20451;-69
2021/12/03 03:52:33;;;;;;;22.47;13.13;;;2.60;99.90;;;;;;5030177;28;20639;-68
2021/12/03 03:55:01;;;;;;;28.23;10.73;;;2.60;99.90;;;;;;5040712;28;20470;-69
2021/12/03 03:57:28;;;;;;;10.10;6.40;;;2.60;99.90;;;;;;5030353;28;20568;-68
2021/12/03 03:59:55;;;;;;;10.60;6.97;;;2.70;99.90;;;;;;5037877;28;20532;-69
2021/12/03 04:02:22;;;;;;;16.93;9.50;;;2.70;99.90;;;;;;5027926;28;20994;-69
2021/12/03 04:04:53;;;;;;;21.63;12.50;;;2.70;99.90;;;;;;5022411;28;20954;-68
2021/12/03 04:07:20;;;;;;;24.47;9.73;;;2.60;99.90;;;;;;5023476;28;20419;-68
2021/12/03 04:09:48;;;;;;;8.30;5.10;;;2.70;99.90;;;;;;5026770;28;20468;-67
2021/12/03 04:12:14;;;;;;;23.63;12.13;;;2.70;99.90;;;;;;5035525;28;20468;-69
2021/12/03 04:14:41;;;;;;;30.97;8.73;;;2.70;99.90;;;;;;5020803;28;20573;-68
2021/12/03 04:17:08;;;;;;;15.43;7.30;;;2.60;99.90;;;;;;5023976;28;20436;-69
2021/12/03 04:19:36;;;;;;;3.33;2.60;;;2.60;99.90;;;;;;5031392;28;20491;-70
2021/12/03 04:22:05;;;;;;;12.53;9.60;;;2.50;99.90;;;;;;5041832;28;21369;-68
2021/12/03 04:24:33;;;;;;;11.50;6.13;;;2.50;99.90;;;;;;5029307;28;20443;-69
2021/12/03 04:27:00;;;;;;;17.63;4.00;;;2.50;99.90;;;;;;5035619;28;20513;-68
2021/12/03 04:29:27;;;;;;;19.63;9.77;;;2.60;99.90;;;;;;5045615;28;20584;-69
2021/12/03 04:31:54;;;;;;;17.83;7.27;;;2.60;99.90;;;;;;5038769;28;20885;-70
2021/12/03 04:34:21;;;;;;;12.33;8.23;;;2.60;99.90;;;;;;5022231;28;20467;-70
2021/12/03 04:36:49;;;;;;;7.83;4.90;;;2.60;99.90;;;;;;5018931;28;20434;-69
2021/12/03 04:39:18;;;;;;;20.07;9.23;;;2.50;99.90;;;;;;5026740;28;20471;-70
2021/12/03 04:41:45;;;;;;;10.27;6.87;;;2.50;99.90;;;;;;5023977;28;20458;-68
2021/12/03 04:44:12;;;;;;;21.33;7.50;;;2.60;99.90;;;;;;5033723;28;20422;-70
2021/12/03 04:46:39;;;;;;;10.93;7.60;;;2.70;99.90;;;;;;5026702;28;20523;-69
2021/12/03 04:49:06;;;;;;;22.50;7.63;;;2.70;99.90;;;;;;5008293;28;20459;-69
2021/12/03 04:51:33;;;;;;;8.57;7.50;;;2.70;99.90;;;;;;5032884;28;20517;-69
2021/12/03 04:54:00;;;;;;;17.83;8.77;;;2.70;99.90;;;;;;5030010;28;20537;-70
2021/12/03 04:56:29;;;;;;;12.97;7.93;;;2.70;99.90;;;;;;5033899;28;20505;-68
2021/12/03 04:58:56;;;;;;;16.30;11.80;;;2.70;99.90;;;;;;5013886;28;20483;-68
2021/12/03 05:01:23;;;;;;;15.03;7.63;;;2.70;99.90;;;;;;5026954;28;20456;-67
2021/12/03 05:03:50;;;;;;;11.80;5.30;;;2.70;99.90;;;;;;5027529;28;21317;-69
2021/12/03 05:06:28;;;;;;;12.13;5.77;;;2.80;99.90;;;;;;5025920;28;20526;-69
2021/12/03 05:08:56;;;;;;;12.13;7.83;;;2.80;99.90;;;;;;5025340;28;21034;-69
2021/12/03 05:11:23;;;;;;;20.50;10.27;;;2.70;99.90;;;;;;5029181;28;20491;-70
2021/12/03 05:13:51;;;;;;;19.17;6.23;;;2.70;99.90;;;;;;5036540;28;20513;-69
2021/12/03 05:16:18;;;;;;;22.43;11.93;;;2.80;99.90;;;;;;5033946;28;20496;-70
2021/12/03 05:18:48;;;;;;;10.97;5.67;;;2.80;99.90;;;;;;5042503;28;20499;-69
2021/12/03 05:21:15;;;;;;;17.07;11.63;;;2.80;99.90;;;;;;5038420;28;20471;-70
2021/12/03 05:23:42;;;;;;;29.80;9.13;;;2.90;99.90;;;;;;5041255;28;20864;-68
2021/12/03 05:26:09;;;;;;;16.17;10.03;;;3.00;99.90;;;;;;5037112;28;20459;-69
2021/12/03 05:28:36;;;;;;;12.10;6.70;;;3.00;99.90;;;;;;5027052;28;20631;-69
2021/12/03 05:31:04;;;;;;;10.10;7.40;;;2.90;99.90;;;;;;5027817;28;20505;-68
2021/12/03 05:33:31;;;;;;;40.70;8.10;;;2.90;99.90;;;;;;5033561;28;20521;-70
2021/12/03 05:35:58;;;;;;;29.80;10.93;;;3.00;99.90;;;;;;5021913;28;21325;-71
2021/12/03 05:38:25;;;;;;;10.23;5.87;;;3.00;99.90;;;;;;5035480;28;20473;-67
2021/12/03 05:40:52;;;;;;;11.00;6.40;;;3.10;99.90;;;;;;5033755;28;20454;-70
2021/12/03 05:43:19;;;;;;;12.23;6.80;;;3.20;99.90;;;;;;5045125;28;20442;-70
2021/12/03 05:45:47;;;;;;;14.70;8.10;;;3.20;99.90;;;;;;5041681;28;20465;-69
2021/12/03 05:48:16;;;;;;;4.30;2.90;;;3.20;99.90;;;;;;5047184;28;20489;-69
2021/12/03 05:50:43;;;;;;;19.83;7.77;;;3.10;99.90;;;;;;5043676;28;20455;-70
2021/12/03 05:53:11;;;;;;;13.43;6.40;;;3.10;99.90;;;;;;5039462;28;21120;-70
2021/12/03 05:55:38;;;;;;;9.17;5.90;;;3.10;99.90;;;;;;5039860;28;20507;-69
2021/12/03 05:58:05;;;;;;;7.00;4.23;;;3.20;99.90;;;;;;5044018;28;20456;-70
2021/12/03 06:00:36;;;;;;;15.30;8.40;;;3.20;99.90;;;;;;5035766;28;20820;-70
2021/12/03 06:03:04;;;;;;;14.37;9.27;;;3.00;99.90;;;;;;5045308;28;20517;-69
2021/12/03 06:05:33;;;;;;;3.90;3.00;;;3.00;99.90;;;;;;5043530;28;20464;-69
2021/12/03 06:08:01;;;;;;;12.77;8.47;;;3.00;99.90;;;;;;5048221;28;20941;-70
2021/12/03 06:10:28;;;;;;;9.80;6.83;;;3.00;99.90;;;;;;5033155;28;20458;-69
2021/12/03 06:12:56;;;;;;;6.40;5.73;;;3.00;99.90;;;;;;5048610;28;20462;-70
2021/12/03 06:15:23;;;;;;;12.87;5.10;;;3.00;99.90;;;;;;5038789;28;20971;-69
2021/12/03 06:17:50;;;;;;;22.07;5.70;;;3.00;99.90;;;;;;5045892;28;20529;-69
2021/12/03 06:20:18;;;;;;;28.93;9.00;;;3.00;99.90;;;;;;5033280;28;20443;-69
2021/12/03 06:22:47;;;;;;;11.57;6.77;;;3.10;99.90;;;;;;5045092;28;20821;-69
2021/12/03 06:25:15;;;;;;;9.87;6.40;;;3.20;99.90;;;;;;5042141;28;20437;-67
2021/12/03 06:27:42;;;;;;;9.33;4.27;;;3.20;99.90;;;;;;5049395;28;20514;-69
2021/12/03 06:30:12;;;;;;;6.23;3.90;;;3.20;99.90;;;;;;5036745;28;20503;-70
2021/12/03 06:32:40;;;;;;;6.53;5.00;;;3.10;99.90;;;;;;5041649;28;20492;-70
2021/12/03 06:35:09;;;;;;;14.87;9.00;;;3.00;99.90;;;;;;5043925;28;20466;-68
2021/12/03 06:37:37;;;;;;;8.70;6.37;;;3.10;99.90;;;;;;5032058;28;20767;-69
2021/12/03 06:40:08;;;;;;;14.60;7.63;;;3.20;99.90;;;;;;5033441;28;20863;-69
2021/12/03 06:42:35;;;;;;;7.00;5.17;;;3.20;99.90;;;;;;5047236;28;20500;-70
2021/12/03 06:45:05;;;;;;;7.10;5.77;;;3.20;99.90;;;;;;5032549;28;20862;-69
2021/12/03 06:47:33;;;;;;;27.00;8.60;;;3.30;99.90;;;;;;5028163;28;20463;-70
2021/12/03 06:50:02;;;;;;;6.40;3.50;;;3.30;99.90;;;;;;5032909;28;20451;-69
2021/12/03 06:52:32;;;;;;;12.33;9.03;;;3.20;99.90;;;;;;5038011;28;20438;-68
2021/12/03 06:55:01;;;;;;;13.33;6.77;;;3.20;99.90;;;;;;5040615;28;20458;-71
2021/12/03 06:57:30;;;;;;;17.30;6.43;;;3.30;99.90;;;;;;5040224;28;20468;-70
2021/12/03 06:59:57;;;;;;;9.70;5.83;;;3.30;99.90;;;;;;5041707;28;20836;-70
2021/12/03 07:02:24;;;;;;;16.63;10.00;;;3.30;99.90;;;;;;5038934;28;20463;-69
2021/12/03 07:04:51;;;;;;;28.37;8.00;;;3.30;99.90;;;;;;5050189;28;20445;-70
2021/12/03 07:07:18;;;;;;;15.93;7.30;;;3.30;99.90;;;;;;5039472;28;20518;-70
2021/12/03 07:09:49;;;;;;;9.83;4.00;;;3.30;99.90;;;;;;5041663;28;20546;-70
2021/12/03 07:12:16;;;;;;;33.03;9.27;;;3.20;99.90;;;;;;5035914;28;20447;-69
2021/12/03 07:14:44;;;;;;;15.80;8.47;;;3.30;99.90;;;;;;5037618;28;20884;-70
2021/12/03 07:17:11;;;;;;;7.97;4.83;;;3.20;99.90;;;;;;5040262;28;20475;-70
2021/12/03 07:19:38;;;;;;;14.23;6.93;;;3.20;99.90;;;;;;5037885;28;20485;-70
2021/12/03 07:22:05;;;;;;;13.30;5.70;;;3.20;99.90;;;;;;5039431;28;20457;-69
2021/12/03 07:24:33;;;;;;;35.03;11.77;;;3.20;99.90;;;;;;5024408;28;20485;-68
2021/12/03 07:27:01;;;;;;;10.03;2.70;;;3.30;99.90;;;;;;5037755;28;20457;-70
2021/12/03 07:29:28;;;;;;;9.63;3.53;;;3.30;99.90;;;;;;5042423;28;20924;-70
2021/12/03 07:31:57;;;;;;;12.53;7.53;;;3.30;99.90;;;;;;5044528;28;20583;-69
2021/12/03 07:34:24;;;;;;;7.10;3.23;;;3.30;99.90;;;;;;5035983;28;20464;-69
2021/12/03 07:36:51;;;;;;;9.20;6.27;;;3.30;99.90;;;;;;5040995;28;20467;-69
2021/12/03 07:39:17;;;;;;;12.57;6.97;;;3.40;99.90;;;;;;5031611;28;20551;-69
2021/12/03 07:41:44;;;;;;;33.87;6.27;;;3.50;99.90;;;;;;5037853;28;20992;-70
2021/12/03 07:44:11;;;;;;;8.93;5.03;;;3.40;99.90;;;;;;5035765;28;20463;-69
2021/12/03 07:46:38;;;;;;;14.97;9.83;;;3.50;99.90;;;;;;5038961;28;20487;-69
2021/12/03 07:49:07;;;;;;;12.93;5.63;;;3.50;99.90;;;;;;5041983;28;20498;-69
2021/12/03 07:51:34;;;;;;;26.87;6.67;;;3.60;99.90;;;;;;5037489;28;20459;-70
2021/12/03 07:54:01;;;;;;;30.53;6.70;;;3.60;99.90;;;;;;5038106;28;20445;-69
2021/12/03 07:56:28;;;;;;;17.07;5.73;;;3.60;99.90;;;;;;5039184;28;20853;-70
2021/12/03 07:58:55;;;;;;;12.07;5.30;;;3.60;99.90;;;;;;5045773;28;20934;-70
2021/12/03 08:01:24;;;;;;;23.13;7.13;;;3.70;99.90;;;;;;5041243;28;20430;-68
2021/12/03 08:03:51;;;;;;;13.37;6.10;;;3.70;99.90;;;;;;5028141;28;20464;-68
2021/12/03 08:06:20;;;;;;;7.70;4.47;;;3.70;99.90;;;;;;5030919;28;20441;-71
2021/12/03 08:08:47;;;;;;;9.07;5.33;;;3.70;99.90;;;;;;5041052;28;20827;-69
2021/12/03 08:11:14;;;;;;;7.40;3.20;;;3.70;99.90;;;;;;5044849;28;20434;-69
2021/12/03 08:13:42;;;;;;;17.13;7.67;;;3.70;99.90;;;;;;5037194;28;20439;-69
2021/12/03 08:16:09;;;;;;;8.33;6.57;;;3.70;99.90;;;;;;5038246;28;20461;-70
2021/12/03 08:18:36;;;;;;;12.03;4.60;;;3.80;99.90;;;;;;5041192;28;20564;-70
2021/12/03 08:21:04;;;;;;;3.47;3.17;;;3.70;99.90;;;;;;5038895;28;20454;-69
2021/12/03 08:23:32;;;;;;;12.13;5.03;;;3.80;99.90;;;;;;5033586;28;20463;-70
2021/12/03 08:26:00;;;;;;;14.67;5.10;;;3.70;99.90;;;;;;5039535;28;20911;-71
2021/12/03 08:28:27;;;;;;;5.13;3.67;;;3.80;99.90;;;;;;5033182;28;20583;-70
2021/12/03 08:30:54;;;;;;;14.70;4.53;;;4.00;99.90;;;;;;5033759;28;20507;-70
2021/12/03 08:33:21;;;;;;;6.07;4.33;;;4.00;99.90;;;;;;5038105;28;20431;-67
2021/12/03 08:35:48;;;;;;;20.73;5.50;;;4.00;99.90;;;;;;5032535;28;20980;-69
2021/12/03 08:38:15;;;;;;;8.40;3.67;;;4.00;99.90;;;;;;5028967;28;20472;-68
2021/12/03 08:40:44;;;;;;;4.83;4.33;;;4.10;99.90;;;;;;5033966;28;21125;-69
2021/12/03 08:43:11;;;;;;;6.60;3.63;;;4.10;99.90;;;;;;5047267;28;20458;-69
2021/12/03 08:45:38;;;;;;;4.20;3.17;;;4.10;99.90;;;;;;5031767;28;20451;-68
2021/12/03 08:48:07;;;;;;;5.73;3.40;;;4.20;99.90;;;;;;5036361;28;20450;-69
2021/12/03 08:50:36;;;;;;;6.40;4.40;;;4.10;99.90;;;;;;5039003;28;20450;-69
2021/12/03 08:53:19;;;;;;;8.20;5.23;;;4.00;99.90;;;;;;5040553;28;20455;-69
2021/12/03 08:55:47;;;;;;;5.40;3.90;;;4.00;99.90;;;;;;5036411;28;20435;-69
2021/12/03 08:58:16;;;;;;;6.47;3.03;;;4.10;99.90;;;;;;5038188;28;20471;-69
2021/12/03 09:00:44;;;;;;;5.07;3.40;;;4.10;99.90;;;;;;5039441;28;20466;-69
2021/12/03 09:03:11;;;;;;;7.37;4.47;;;4.10;99.90;;;;;;5049808;28;20465;-70
2021/12/03 09:05:39;;;;;;;15.73;3.63;;;4.20;99.90;;;;;;5045832;28;20492;-70
2021/12/03 09:08:06;;;;;;;3.67;2.83;;;4.20;99.90;;;;;;5046359;28;20439;-68
2021/12/03 09:10:33;;;;;;;5.93;2.97;;;4.20;99.90;;;;;;5040000;28;20484;-69
2021/12/03 09:13:02;;;;;;;2.50;1.90;;;4.20;99.90;;;;;;5043912;28;20427;-70
2021/12/03 09:15:34;;;;;;;6.27;3.57;;;4.10;99.90;;;;;;5027651;28;20466;-70
2021/12/03 09:18:14;;;;;;;3.17;2.83;;;4.10;99.90;;;;;;5043180;28;20514;-68
2021/12/03 09:23:46;;;;;;;4.10;2.30;;;4.30;99.90;;;;;;5024715;28;21020;-71
2021/12/03 09:26:14;;;;;;;1.27;1.17;;;4.20;99.90;;;;;;5031510;28;20438;-70
2021/12/03 09:28:45;;;;;;;1.80;1.70;;;4.30;99.90;;;;;;5041751;28;20497;-73
2021/12/03 09:31:15;;;;;;;13.23;2.73;;;4.30;99.90;;;;;;5039800;28;20482;-69
2021/12/03 09:33:45;;;;;;;2.70;2.20;;;4.40;99.90;;;;;;5033458;28;20537;-67
2021/12/03 09:36:12;;;;;;;16.27;3.40;;;4.50;99.90;;;;;;5034689;28;20455;-70
2021/12/03 09:38:39;;;;;;;1.60;1.10;;;4.60;99.90;;;;;;5039656;28;20965;-69
2021/12/03 09:41:08;;;;;;;7.00;2.83;;;4.60;99.90;;;;;;5044202;28;20535;-70
2021/12/03 09:43:39;;;;;;;2.70;1.70;;;4.60;99.90;;;;;;5038827;28;20454;-69
2021/12/03 09:46:13;;;;;;;3.70;2.40;;;4.70;99.90;;;;;;5038933;28;20488;-70
2021/12/03 09:48:54;;;;;;;2.37;2.17;;;4.90;99.90;;;;;;5033271;28;20480;-70
2021/12/03 09:51:22;;;;;;;9.27;1.93;;;4.80;99.90;;;;;;5042223;28;20483;-69
2021/12/03 09:54:09;;;;;;;2.80;2.37;;;4.70;99.90;;;;;;5039174;28;20861;-70
2021/12/03 09:56:37;;;;;;;4.63;3.43;;;4.70;99.90;;;;;;5041928;28;20467;-68
2021/12/03 10:02:16;;;;;;;3.33;2.57;;;4.90;99.90;;;;;;5028402;28;20450;-69
2021/12/03 10:05:05;;;;;;;3.80;1.97;;;5.00;99.90;;;;;;5026257;28;20906;-70
2021/12/03 10:10:51;;;;;;;2.40;2.23;;;4.70;99.90;;;;;;5033449;28;20472;-70
2021/12/03 10:13:17;;;;;;;1.37;1.27;;;4.80;99.90;;;;;;5035514;28;20987;-70
2021/12/03 10:15:53;;;;;;;8.70;2.07;;;5.00;99.90;;;;;;5034135;28;20474;-70
2021/12/03 10:18:42;;;;;;;3.13;1.80;;;5.00;99.90;;;;;;5046825;28;20470;-70
2021/12/03 10:21:19;;;;;;;2.50;2.30;;;4.90;99.90;;;;;;5045609;28;20427;-70
2021/12/03 10:29:42;;;;;;;3.17;2.10;;;5.00;99.90;;;;;;5048500;28;20481;-69
2021/12/03 10:46:28;;;;;;;4.30;2.33;;;5.30;99.90;;;;;;5028218;28;20954;-68
2021/12/03 10:49:02;;;;;;;12.40;1.90;;;5.30;99.90;;;;;;5036399;28;20441;-70
2021/12/03 10:51:42;;;;;;;1.37;1.27;;;5.30;99.90;;;;;;5031834;28;20472;-69
2021/12/03 10:54:19;;;;;;;9.17;2.30;;;5.20;99.90;;;;;;5041738;28;20954;-70
2021/12/03 11:14:26;;;;;;;1.63;1.53;;;5.30;99.90;;;;;;5036751;28;20558;-70
2021/12/03 11:28:43;;;;;;;2.70;1.47;;;5.20;99.90;;;;;;5037955;28;20810;-69
2021/12/03 11:31:25;;;;;;;3.60;2.30;;;5.30;99.90;;;;;;5039160;28;20472;-70
2021/12/03 12:16:15;;;;;;;5.17;2.10;;;5.30;99.90;;;;;;5001389;28;21058;-70
2021/12/03 13:20:35;;;;;;;2.00;1.50;;;5.70;99.90;;;;;;5025364;28;20968;-68
2021/12/03 14:00:36;;;;;;;2.33;1.10;;;5.60;99.90;;;;;;5041698;28;20458;-69
2021/12/03 14:40:33;;;;;;;1.00;0.87;;;5.60;99.90;;;;;;5020556;28;20438;-69
2021/12/03 14:43:13;;;;;;;2.10;1.03;;;5.70;99.90;;;;;;5043877;28;20441;-68
2021/12/03 14:46:02;;;;;;;1.73;1.43;;;5.60;99.90;;;;;;5040989;28;20533;-73
2021/12/03 14:48:42;;;;;;;2.60;1.67;;;5.60;99.90;;;;;;5039968;28;20458;-70
2021/12/03 14:51:21;;;;;;;1.33;1.17;;;5.60;99.90;;;;;;5035524;28;20860;-69
2021/12/03 14:56:47;;;;;;;2.83;1.57;;;5.50;99.90;;;;;;5029307;28;20440;-68
2021/12/03 14:59:19;;;;;;;2.50;1.93;;;5.50;99.90;;;;;;5023343;28;20480;-69
2021/12/03 15:01:54;;;;;;;2.30;1.10;;;5.50;99.90;;;;;;5019081;28;20442;-69
2021/12/03 15:04:49;;;;;;;3.20;1.63;;;5.60;99.90;;;;;;5042233;28;20520;-69
2021/12/03 15:07:17;;;;;;;4.47;2.60;;;5.50;99.90;;;;;;5046241;28;20430;-70
2021/12/03 15:09:46;;;;;;;1.13;1.03;;;5.50;99.90;;;;;;5045561;28;20480;-70
2021/12/03 15:15:30;;;;;;;2.10;1.63;;;5.40;99.90;;;;;;5029315;28;20456;-69
2021/12/03 15:23:37;;;;;;;2.67;1.80;;;5.30;99.90;;;;;;5016371;28;20448;-69
2021/12/03 15:26:12;;;;;;;1.33;1.10;;;5.30;99.90;;;;;;5043988;28;20576;-70
2021/12/03 15:31:48;;;;;;;4.70;1.43;;;4.90;99.90;;;;;;5051187;28;20480;-69
2021/12/03 15:34:37;;;;;;;2.70;1.57;;;4.80;99.90;;;;;;5046942;28;20463;-70
2021/12/03 15:37:18;;;;;;;3.93;1.93;;;4.70;99.90;;;;;;5050127;28;20513;-69
2021/12/03 15:40:06;;;;;;;1.33;1.03;;;4.70;99.90;;;;;;5051290;28;20532;-69
2021/12/03 16:04:31;;;;;;;2.57;1.70;;;4.60;99.90;;;;;;5044276;28;20571;-70
2021/12/03 16:07:15;;;;;;;1.10;1.00;;;4.70;99.90;;;;;;5043511;28;20471;-70
2021/12/03 16:12:42;;;;;;;1.83;1.43;;;4.50;99.90;;;;;;5039486;28;20564;-69
2021/12/03 16:18:23;;;;;;;3.23;2.57;;;4.40;99.90;;;;;;5039594;28;20436;-69
2021/12/03 16:23:49;;;;;;;1.70;1.57;;;4.50;99.90;;;;;;5047082;28;20436;-70
2021/12/03 16:26:50;;;;;;;9.83;4.10;;;4.40;99.90;;;;;;5041815;28;20463;-70
2021/12/03 16:54:09;;;;;;;2.37;1.40;;;4.30;99.90;;;;;;5022116;28;20469;-66
2021/12/03 16:56:42;;;;;;;3.67;2.37;;;4.40;99.90;;;;;;5012182;28;20920;-69
2021/12/03 16:59:11;;;;;;;2.40;2.20;;;4.30;99.90;;;;;;5024426;28;20458;-68
2021/12/03 17:01:43;;;;;;;4.63;2.47;;;4.40;99.90;;;;;;5025312;28;20846;-68
2021/12/03 17:04:27;;;;;;;4.50;3.27;;;4.30;99.90;;;;;;5029158;28;20422;-69
2021/12/03 17:12:37;;;;;;;4.83;2.37;;;4.50;99.90;;;;;;5004783;28;20644;-70
2021/12/03 17:15:20;;;;;;;2.83;2.30;;;4.50;99.90;;;;;;5022146;28;20443;-66
2021/12/03 17:18:45;;;;;;;3.33;1.77;;;4.40;99.90;;;;;;5028242;28;20471;-68
2021/12/03 17:49:01;;;;;;;1.77;1.60;;;4.30;99.90;;;;;;5046046;28;20987;-70
2021/12/03 17:57:14;;;;;;;2.53;2.37;;;4.40;99.90;;;;;;5044395;28;20977;-68
2021/12/03 17:59:44;;;;;;;7.00;3.17;;;4.40;99.90;;;;;;5042486;28;20458;-70
2021/12/03 18:02:25;;;;;;;2.17;1.87;;;4.40;99.90;;;;;;5027905;28;20578;-69
2021/12/03 18:07:46;;;;;;;4.83;2.73;;;4.40;99.90;;;;;;5025253;28;20485;-69
2021/12/03 18:10:33;;;;;;;3.73;3.20;;;4.30;99.90;;;;;;5040218;28;20492;-69
2021/12/03 18:16:17;;;;;;;4.67;1.97;;;4.50;99.90;;;;;;5028539;28;21062;-70
2021/12/03 18:44:09;;;;;;;3.60;2.13;;;4.50;99.90;;;;;;5030812;28;20524;-68
2021/12/03 18:47:03;;;;;;;4.07;2.30;;;4.50;99.90;;;;;;5032328;28;20476;-69
2021/12/03 18:52:43;;;;;;;1.10;0.93;;;4.60;99.90;;;;;;5035511;28;20483;-69
2021/12/03 18:55:14;;;;;;;2.90;2.03;;;4.70;99.90;;;;;;5038868;28;20981;-69
2021/12/03 18:57:43;;;;;;;2.37;1.77;;;4.60;99.90;;;;;;5047757;28;20870;-70
2021/12/03 19:00:14;;;;;;;1.90;1.70;;;4.50;99.90;;;;;;5036294;28;20466;-68
2021/12/03 19:02:45;;;;;;;10.60;4.03;;;4.60;99.90;;;;;;5014281;28;20561;-69
2021/12/03 19:05:17;;;;;;;1.73;1.60;;;4.60;99.90;;;;;;5021068;28;20487;-69
2021/12/03 19:07:46;;;;;;;7.90;4.17;;;4.70;99.90;;;;;;5035556;28;20475;-69
2021/12/03 19:10:18;;;;;;;4.13;3.67;;;4.60;99.90;;;;;;5026332;28;20502;-69
2021/12/03 19:12:53;;;;;;;2.23;2.03;;;4.70;99.90;;;;;;5037873;28;20494;-68
2021/12/03 19:15:20;;;;;;;2.43;1.83;;;4.70;99.90;;;;;;5020779;28;20475;-69
2021/12/03 19:17:48;;;;;;;2.63;1.63;;;4.60;99.90;;;;;;5043922;28;20479;-70
2021/12/03 19:20:21;;;;;;;2.00;1.50;;;4.80;99.90;;;;;;5047840;28;20701;-69
2021/12/03 19:22:49;;;;;;;7.50;2.13;;;4.80;99.90;;;;;;5033443;28;20499;-70
2021/12/03 19:25:17;;;;;;;3.27;1.87;;;4.80;99.90;;;;;;5035447;28;20492;-70